sensor_id;sensor_type;location;lat;lon;timestamp;pressure;altitude;pressure_sealevel;temperature;humidity
21361;BME280;10839;43.206;23.550;2023-03-19T00:00:07;97801.69;;;4.50;70.21
21361;BME280;10839;43.206;23.550;2023-03-19T00:02:33;97805.31;;;4.49;70.52
21361;BME280;10839;43.206;23.550;2023-03-19T00:05:00;97813.47;;;4.57;70.86
21361;BME280;10839;43.206;23.550;2023-03-19T00:07:26;97811.75;;;4.56;71.65
21361;BME280;10839;43.206;23.550;2023-03-19T00:09:52;97810.63;;;4.68;71.50
21361;BME280;10839;43.206;23.550;2023-03-19T00:12:18;97817.53;;;4.42;72.40
21361;BME280;10839;43.206;23.550;2023-03-19T00:14:44;97810.78;;;4.38;73.06
21361;BME280;10839;43.206;23.550;2023-03-19T00:17:10;97802.50;;;4.41;72.86
21361;BME280;10839;43.206;23.550;2023-03-19T00:19:36;97814.72;;;4.25;72.87
21361;BME280;10839;43.206;23.550;2023-03-19T00:22:02;97818.78;;;4.19;73.35
21361;BME280;10839;43.206;23.550;2023-03-19T00:24:28;97822.28;;;4.29;73.57
21361;BME280;10839;43.206;23.550;2023-03-19T00:26:54;97811.06;;;4.16;73.62
21361;BME280;10839;43.206;23.550;2023-03-19T00:29:21;97813.44;;;4.10;75.09
21361;BME280;10839;43.206;23.550;2023-03-19T00:31:48;97815.84;;;4.22;74.63
21361;BME280;10839;43.206;23.550;2023-03-19T00:34:15;97806.00;;;4.04;75.64
21361;BME280;10839;43.206;23.550;2023-03-19T00:36:44;97800.84;;;4.02;76.08
21361;BME280;10839;43.206;23.550;2023-03-19T00:39:11;97797.44;;;3.90;76.94
21361;BME280;10839;43.206;23.550;2023-03-19T00:41:36;97805.25;;;3.73;78.03
21361;BME280;10839;43.206;23.550;2023-03-19T00:44:03;97798.41;;;3.80;78.05
21361;BME280;10839;43.206;23.550;2023-03-19T00:46:31;97799.97;;;3.92;77.44
21361;BME280;10839;43.206;23.550;2023-03-19T00:48:57;97793.78;;;3.82;77.14
21361;BME280;10839;43.206;23.550;2023-03-19T00:51:23;97790.00;;;3.84;77.48
21361;BME280;10839;43.206;23.550;2023-03-19T00:53:50;97785.38;;;3.96;76.98
21361;BME280;10839;43.206;23.550;2023-03-19T00:56:18;97783.16;;;3.82;77.38
21361;BME280;10839;43.206;23.550;2023-03-19T00:58:46;97789.84;;;3.86;77.29
21361;BME280;10839;43.206;23.550;2023-03-19T01:01:14;97778.09;;;3.79;77.31
21361;BME280;10839;43.206;23.550;2023-03-19T01:03:41;97781.69;;;3.59;78.86
21361;BME280;10839;43.206;23.550;2023-03-19T01:06:07;97782.22;;;3.53;79.21
21361;BME280;10839;43.206;23.550;2023-03-19T01:08:33;97772.72;;;3.60;78.33
21361;BME280;10839;43.206;23.550;2023-03-19T01:11:07;97769.13;;;3.61;78.66
21361;BME280;10839;43.206;23.550;2023-03-19T01:13:34;97763.78;;;3.61;78.36
21361;BME280;10839;43.206;23.550;2023-03-19T01:16:00;97758.75;;;3.67;77.54
21361;BME280;10839;43.206;23.550;2023-03-19T01:18:26;97760.69;;;3.56;78.68
21361;BME280;10839;43.206;23.550;2023-03-19T01:20:52;97759.03;;;3.74;77.90
21361;BME280;10839;43.206;23.550;2023-03-19T01:23:18;97754.00;;;3.90;77.10
21361;BME280;10839;43.206;23.550;2023-03-19T01:25:43;97756.38;;;3.74;77.32
21361;BME280;10839;43.206;23.550;2023-03-19T01:28:10;97749.22;;;3.74;77.71
21361;BME280;10839;43.206;23.550;2023-03-19T01:30:38;97754.25;;;3.68;78.50
21361;BME280;10839;43.206;23.550;2023-03-19T01:33:28;97753.44;;;3.67;78.81
21361;BME280;10839;43.206;23.550;2023-03-19T01:36:00;97750.88;;;3.56;79.15
21361;BME280;10839;43.206;23.550;2023-03-19T01:38:47;97744.97;;;3.53;79.22
21361;BME280;10839;43.206;23.550;2023-03-19T01:41:14;97757.09;;;3.27;81.27
21361;BME280;10839;43.206;23.550;2023-03-19T01:43:40;97757.53;;;3.32;80.98
21361;BME280;10839;43.206;23.550;2023-03-19T01:46:32;97749.31;;;3.05;82.66
21361;BME280;10839;43.206;23.550;2023-03-19T01:49:23;97748.81;;;3.11;83.41
21361;BME280;10839;43.206;23.550;2023-03-19T01:52:03;97751.34;;;3.22;82.56
21361;BME280;10839;43.206;23.550;2023-03-19T01:54:37;97753.13;;;3.12;82.76
21361;BME280;10839;43.206;23.550;2023-03-19T01:57:23;97763.41;;;2.96;83.51
21361;BME280;10839;43.206;23.550;2023-03-19T02:00:12;97757.22;;;3.16;82.37
21361;BME280;10839;43.206;23.550;2023-03-19T02:02:51;97756.53;;;2.93;83.60
21361;BME280;10839;43.206;23.550;2023-03-19T02:05:40;97758.56;;;3.01;83.86
21361;BME280;10839;43.206;23.550;2023-03-19T02:08:12;97761.38;;;2.79;85.01
21361;BME280;10839;43.206;23.550;2023-03-19T02:10:42;97749.72;;;2.70;85.86
21361;BME280;10839;43.206;23.550;2023-03-19T02:13:09;97762.09;;;2.81;86.10
21361;BME280;10839;43.206;23.550;2023-03-19T02:15:35;97756.97;;;2.68;86.01
21361;BME280;10839;43.206;23.550;2023-03-19T02:18:01;97768.72;;;2.66;87.46
21361;BME280;10839;43.206;23.550;2023-03-19T02:20:35;97756.16;;;2.68;87.04
21361;BME280;10839;43.206;23.550;2023-03-19T02:23:20;97764.16;;;2.56;87.65
21361;BME280;10839;43.206;23.550;2023-03-19T02:26:11;97762.28;;;2.68;88.26
21361;BME280;10839;43.206;23.550;2023-03-19T02:28:41;97756.16;;;2.68;87.50
21361;BME280;10839;43.206;23.550;2023-03-19T02:31:10;97763.91;;;2.59;87.91
21361;BME280;10839;43.206;23.550;2023-03-19T02:33:37;97766.91;;;2.66;88.14
21361;BME280;10839;43.206;23.550;2023-03-19T02:36:08;97762.59;;;2.75;88.47
21361;BME280;10839;43.206;23.550;2023-03-19T02:38:35;97771.00;;;2.49;89.10
21361;BME280;10839;43.206;23.550;2023-03-19T02:41:06;97773.44;;;2.62;89.85
21361;BME280;10839;43.206;23.550;2023-03-19T02:43:35;97775.06;;;2.53;89.49
21361;BME280;10839;43.206;23.550;2023-03-19T02:46:03;97773.50;;;2.30;90.57
21361;BME280;10839;43.206;23.550;2023-03-19T02:48:30;97775.97;;;2.22;92.02
21361;BME280;10839;43.206;23.550;2023-03-19T02:50:57;97779.34;;;2.24;92.54
21361;BME280;10839;43.206;23.550;2023-03-19T02:53:24;97773.47;;;1.89;93.84
21361;BME280;10839;43.206;23.550;2023-03-19T02:55:51;97777.91;;;1.89;94.72
21361;BME280;10839;43.206;23.550;2023-03-19T02:58:17;97779.94;;;1.96;94.99
21361;BME280;10839;43.206;23.550;2023-03-19T03:00:43;97776.59;;;1.83;95.66
21361;BME280;10839;43.206;23.550;2023-03-19T03:03:10;97782.63;;;1.85;96.28
21361;BME280;10839;43.206;23.550;2023-03-19T03:05:36;97778.16;;;1.86;95.72
21361;BME280;10839;43.206;23.550;2023-03-19T03:08:02;97774.97;;;1.71;96.35
21361;BME280;10839;43.206;23.550;2023-03-19T03:10:31;97768.81;;;1.71;97.67
21361;BME280;10839;43.206;23.550;2023-03-19T03:12:58;97773.00;;;1.84;96.42
21361;BME280;10839;43.206;23.550;2023-03-19T03:15:24;97771.34;;;1.72;96.49
21361;BME280;10839;43.206;23.550;2023-03-19T03:17:50;97769.66;;;1.71;97.34
21361;BME280;10839;43.206;23.550;2023-03-19T03:20:17;97769.06;;;1.99;95.88
21361;BME280;10839;43.206;23.550;2023-03-19T03:22:45;97766.72;;;1.85;95.31
21361;BME280;10839;43.206;23.550;2023-03-19T03:25:11;97773.94;;;1.83;96.63
21361;BME280;10839;43.206;23.550;2023-03-19T03:27:37;97766.28;;;2.01;95.11
21361;BME280;10839;43.206;23.550;2023-03-19T03:30:05;97767.91;;;1.92;94.51
21361;BME280;10839;43.206;23.550;2023-03-19T03:32:37;97764.53;;;1.90;95.45
21361;BME280;10839;43.206;23.550;2023-03-19T03:35:05;97760.84;;;2.02;94.12
21361;BME280;10839;43.206;23.550;2023-03-19T03:37:33;97758.19;;;2.02;93.51
21361;BME280;10839;43.206;23.550;2023-03-19T03:39:59;97751.97;;;1.92;94.24
21361;BME280;10839;43.206;23.550;2023-03-19T03:42:24;97753.50;;;2.06;93.10
21361;BME280;10839;43.206;23.550;2023-03-19T03:44:50;97746.81;;;2.11;92.32
21361;BME280;10839;43.206;23.550;2023-03-19T03:47:16;97753.56;;;2.15;93.46
21361;BME280;10839;43.206;23.550;2023-03-19T03:49:43;97753.03;;;2.21;91.80
21361;BME280;10839;43.206;23.550;2023-03-19T03:52:09;97753.28;;;2.18;91.24
21361;BME280;10839;43.206;23.550;2023-03-19T03:54:35;97753.56;;;2.15;92.28
21361;BME280;10839;43.206;23.550;2023-03-19T03:57:01;97752.41;;;2.49;89.84
21361;BME280;10839;43.206;23.550;2023-03-19T03:59:27;97767.66;;;2.36;90.14
21361;BME280;10839;43.206;23.550;2023-03-19T04:01:53;97761.25;;;2.18;92.04
21361;BME280;10839;43.206;23.550;2023-03-19T04:04:19;97770.13;;;2.28;91.47
21361;BME280;10839;43.206;23.550;2023-03-19T04:06:46;97767.28;;;2.20;91.05
21361;BME280;10839;43.206;23.550;2023-03-19T04:09:22;97767.91;;;1.92;93.76
21361;BME280;10839;43.206;23.550;2023-03-19T04:11:48;97759.75;;;2.05;93.66
21361;BME280;10839;43.206;23.550;2023-03-19T04:14:14;97761.31;;;2.07;92.03
21361;BME280;10839;43.206;23.550;2023-03-19T04:16:40;97766.72;;;1.85;94.20
21361;BME280;10839;43.206;23.550;2023-03-19T04:19:06;97762.31;;;1.95;93.72
21361;BME280;10839;43.206;23.550;2023-03-19T04:21:32;97765.78;;;2.07;92.31
21361;BME280;10839;43.206;23.550;2023-03-19T04:23:58;97756.34;;;1.82;93.98
21361;BME280;10839;43.206;23.550;2023-03-19T04:26:24;97760.59;;;2.05;93.58
21361;BME280;10839;43.206;23.550;2023-03-19T04:28:50;97759.97;;;2.13;92.31
21361;BME280;10839;43.206;23.550;2023-03-19T04:31:16;97760.00;;;2.02;93.18
21361;BME280;10839;43.206;23.550;2023-03-19T04:33:43;97763.91;;;2.18;92.35
21361;BME280;10839;43.206;23.550;2023-03-19T04:36:10;97759.44;;;2.19;92.54
21361;BME280;10839;43.206;23.550;2023-03-19T04:38:37;97754.66;;;2.13;92.15
21361;BME280;10839;43.206;23.550;2023-03-19T04:41:04;97747.59;;;2.02;93.94
21361;BME280;10839;43.206;23.550;2023-03-19T04:43:33;97764.69;;;2.09;93.33
21361;BME280;10839;43.206;23.550;2023-03-19T04:46:02;97764.25;;;1.93;94.36
21361;BME280;10839;43.206;23.550;2023-03-19T04:48:28;97746.16;;;2.81;91.22
21361;BME280;10839;43.206;23.550;2023-03-19T04:50:55;97737.19;;;2.82;87.56
21361;BME280;10839;43.206;23.550;2023-03-19T04:53:21;97737.63;;;3.17;86.18
21361;BME280;10839;43.206;23.550;2023-03-19T04:55:48;97744.13;;;3.43;84.95
21361;BME280;10839;43.206;23.550;2023-03-19T04:58:20;97753.03;;;3.91;81.48
21361;BME280;10839;43.206;23.550;2023-03-19T05:00:54;97741.66;;;3.70;82.57
21361;BME280;10839;43.206;23.550;2023-03-19T05:03:31;97743.63;;;4.44;78.66
21361;BME280;10839;43.206;23.550;2023-03-19T05:05:57;97746.00;;;4.47;78.22
21361;BME280;10839;43.206;23.550;2023-03-19T05:08:23;97735.91;;;4.41;76.43
21361;BME280;10839;43.206;23.550;2023-03-19T05:10:49;97730.63;;;4.78;76.59
21361;BME280;10839;43.206;23.550;2023-03-19T05:13:15;97744.72;;;5.34;73.00
21361;BME280;10839;43.206;23.550;2023-03-19T05:15:47;97738.13;;;5.65;70.55
21361;BME280;10839;43.206;23.550;2023-03-19T05:18:13;97736.22;;;5.31;71.37
21361;BME280;10839;43.206;23.550;2023-03-19T05:20:43;97714.91;;;5.93;69.50
21361;BME280;10839;43.206;23.550;2023-03-19T05:23:19;97706.00;;;6.45;67.16
21361;BME280;10839;43.206;23.550;2023-03-19T05:25:59;97717.88;;;6.68;66.72
21361;BME280;10839;43.206;23.550;2023-03-19T05:28:45;97736.94;;;6.99;63.02
21361;BME280;10839;43.206;23.550;2023-03-19T05:31:14;97711.47;;;6.61;64.10
21361;BME280;10839;43.206;23.550;2023-03-19T05:33:44;97707.13;;;6.60;64.58
21361;BME280;10839;43.206;23.550;2023-03-19T05:36:11;97706.78;;;7.22;62.50
21361;BME280;10839;43.206;23.550;2023-03-19T05:38:47;97700.00;;;7.02;62.11
21361;BME280;10839;43.206;23.550;2023-03-19T05:41:20;97692.97;;;7.27;61.96
21361;BME280;10839;43.206;23.550;2023-03-19T05:43:56;97705.63;;;7.66;60.13
21361;BME280;10839;43.206;23.550;2023-03-19T05:46:43;97704.94;;;9.33;56.36
21361;BME280;10839;43.206;23.550;2023-03-19T05:49:11;97687.31;;;8.52;56.83
21361;BME280;10839;43.206;23.550;2023-03-19T05:51:37;97688.66;;;8.24;57.50
21361;BME280;10839;43.206;23.550;2023-03-19T05:54:06;97697.44;;;9.13;54.72
21361;BME280;10839;43.206;23.550;2023-03-19T05:56:35;97684.97;;;8.73;56.09
21361;BME280;10839;43.206;23.550;2023-03-19T05:59:27;97707.41;;;9.73;53.04
21361;BME280;10839;43.206;23.550;2023-03-19T06:02:13;97705.69;;;8.95;54.78
21361;BME280;10839;43.206;23.550;2023-03-19T06:04:40;97693.75;;;9.52;53.87
21361;BME280;10839;43.206;23.550;2023-03-19T06:07:06;97688.97;;;8.85;55.49
21361;BME280;10839;43.206;23.550;2023-03-19T06:09:34;97703.34;;;9.00;55.53
21361;BME280;10839;43.206;23.550;2023-03-19T06:12:00;97696.22;;;9.31;53.88
21361;BME280;10839;43.206;23.550;2023-03-19T06:14:45;97707.72;;;9.86;53.56
21361;BME280;10839;43.206;23.550;2023-03-19T06:17:43;97697.66;;;8.87;54.96
21361;BME280;10839;43.206;23.550;2023-03-19T06:20:13;97698.84;;;9.78;51.79
21361;BME280;10839;43.206;23.550;2023-03-19T06:22:39;97696.03;;;9.63;53.47
21361;BME280;10839;43.206;23.550;2023-03-19T06:25:07;97688.16;;;10.23;50.75
21361;BME280;10839;43.206;23.550;2023-03-19T06:27:35;97698.13;;;11.26;49.22
21361;BME280;10839;43.206;23.550;2023-03-19T06:30:16;97697.47;;;11.38;48.17
21361;BME280;10839;43.206;23.550;2023-03-19T06:32:42;97716.41;;;11.30;49.20
21361;BME280;10839;43.206;23.550;2023-03-19T06:35:10;97711.38;;;12.21;46.15
21361;BME280;10839;43.206;23.550;2023-03-19T06:37:38;97718.75;;;12.97;45.84
21361;BME280;10839;43.206;23.550;2023-03-19T06:40:04;97712.09;;;13.00;45.37
21361;BME280;10839;43.206;23.550;2023-03-19T06:42:30;97725.63;;;12.36;45.96
21361;BME280;10839;43.206;23.550;2023-03-19T06:44:56;97726.19;;;11.75;47.83
21361;BME280;10839;43.206;23.550;2023-03-19T06:47:22;97732.13;;;11.27;48.72
21361;BME280;10839;43.206;23.550;2023-03-19T06:49:48;97725.13;;;12.26;47.20
21361;BME280;10839;43.206;23.550;2023-03-19T06:52:14;97722.53;;;14.05;42.80
21361;BME280;10839;43.206;23.550;2023-03-19T06:54:40;97726.22;;;12.32;45.99
21361;BME280;10839;43.206;23.550;2023-03-19T06:57:05;97738.63;;;12.89;45.17
21361;BME280;10839;43.206;23.550;2023-03-19T06:59:32;97739.94;;;13.49;44.77
21361;BME280;10839;43.206;23.550;2023-03-19T07:01:58;97728.75;;;14.72;41.57
21361;BME280;10839;43.206;23.550;2023-03-19T07:04:24;97736.31;;;13.76;42.66
21361;BME280;10839;43.206;23.550;2023-03-19T07:06:51;97730.69;;;14.18;42.32
21361;BME280;10839;43.206;23.550;2023-03-19T07:09:17;97725.44;;;14.83;41.34
21361;BME280;10839;43.206;23.550;2023-03-19T07:11:42;97728.06;;;13.84;42.41
21361;BME280;10839;43.206;23.550;2023-03-19T07:14:08;97730.25;;;16.04;39.74
21361;BME280;10839;43.206;23.550;2023-03-19T07:16:35;97729.25;;;16.42;38.47
21361;BME280;10839;43.206;23.550;2023-03-19T07:19:01;97726.47;;;16.93;37.78
21361;BME280;10839;43.206;23.550;2023-03-19T07:21:28;97739.06;;;17.79;36.28
21361;BME280;10839;43.206;23.550;2023-03-19T07:23:54;97735.88;;;15.52;39.77
21361;BME280;10839;43.206;23.550;2023-03-19T07:26:20;97735.19;;;17.51;36.37
21361;BME280;10839;43.206;23.550;2023-03-19T07:28:46;97745.28;;;18.23;35.27
21361;BME280;10839;43.206;23.550;2023-03-19T07:31:13;97746.19;;;18.35;34.31
21361;BME280;10839;43.206;23.550;2023-03-19T07:33:39;97740.25;;;20.59;32.06
21361;BME280;10839;43.206;23.550;2023-03-19T07:36:05;97738.44;;;20.13;31.52
21361;BME280;10839;43.206;23.550;2023-03-19T07:38:31;97738.78;;;17.69;34.36
21361;BME280;10839;43.206;23.550;2023-03-19T07:40:57;97740.81;;;19.29;32.44
21361;BME280;10839;43.206;23.550;2023-03-19T07:43:23;97752.38;;;18.24;32.89
21361;BME280;10839;43.206;23.550;2023-03-19T07:45:49;97745.81;;;18.31;33.73
21361;BME280;10839;43.206;23.550;2023-03-19T07:48:15;97738.88;;;17.07;34.60
21361;BME280;10839;43.206;23.550;2023-03-19T07:50:40;97734.44;;;17.37;34.20
21361;BME280;10839;43.206;23.550;2023-03-19T07:53:06;97732.41;;;19.76;31.73
21361;BME280;10839;43.206;23.550;2023-03-19T07:55:33;97730.41;;;19.83;30.72
21361;BME280;10839;43.206;23.550;2023-03-19T07:57:59;97736.06;;;17.45;33.00
21361;BME280;10839;43.206;23.550;2023-03-19T08:00:24;97732.25;;;16.28;35.08
21361;BME280;10839;43.206;23.550;2023-03-19T08:02:51;97730.94;;;16.37;35.23
21361;BME280;10839;43.206;23.550;2023-03-19T08:05:17;97740.97;;;18.92;32.24
21361;BME280;10839;43.206;23.550;2023-03-19T08:07:42;97738.31;;;17.72;33.27
21361;BME280;10839;43.206;23.550;2023-03-19T08:10:09;97737.84;;;17.94;33.27
21361;BME280;10839;43.206;23.550;2023-03-19T08:12:36;97736.72;;;18.67;32.39
21361;BME280;10839;43.206;23.550;2023-03-19T08:15:07;97732.88;;;19.96;31.47
21361;BME280;10839;43.206;23.550;2023-03-19T08:17:34;97737.47;;;20.30;30.58
21361;BME280;10839;43.206;23.550;2023-03-19T08:20:08;97736.34;;;21.77;29.16
21361;BME280;10839;43.206;23.550;2023-03-19T08:22:35;97733.19;;;21.19;29.64
21361;BME280;10839;43.206;23.550;2023-03-19T08:25:02;97726.84;;;21.68;29.23
21361;BME280;10839;43.206;23.550;2023-03-19T08:27:28;97729.34;;;21.53;29.47
21361;BME280;10839;43.206;23.550;2023-03-19T08:29:57;97738.72;;;22.28;28.65
21361;BME280;10839;43.206;23.550;2023-03-19T08:32:23;97733.69;;;21.82;28.83
21361;BME280;10839;43.206;23.550;2023-03-19T08:34:49;97742.97;;;21.65;28.37
21361;BME280;10839;43.206;23.550;2023-03-19T08:37:15;97736.75;;;21.69;28.47
21361;BME280;10839;43.206;23.550;2023-03-19T08:39:41;97741.75;;;21.39;28.80
21361;BME280;10839;43.206;23.550;2023-03-19T08:42:07;97736.84;;;21.58;28.94
21361;BME280;10839;43.206;23.550;2023-03-19T08:44:33;97734.59;;;20.93;29.82
21361;BME280;10839;43.206;23.550;2023-03-19T08:46:59;97730.03;;;21.60;28.97
21361;BME280;10839;43.206;23.550;2023-03-19T08:49:25;97728.84;;;21.56;28.62
21361;BME280;10839;43.206;23.550;2023-03-19T08:51:50;97727.72;;;21.52;28.87
21361;BME280;10839;43.206;23.550;2023-03-19T08:54:16;97730.28;;;20.81;29.40
21361;BME280;10839;43.206;23.550;2023-03-19T08:56:43;97727.22;;;20.94;29.08
21361;BME280;10839;43.206;23.550;2023-03-19T08:59:09;97730.53;;;21.57;28.50
21361;BME280;10839;43.206;23.550;2023-03-19T09:01:35;97730.50;;;19.88;30.78
21361;BME280;10839;43.206;23.550;2023-03-19T09:04:02;97726.94;;;20.79;30.04
21361;BME280;10839;43.206;23.550;2023-03-19T09:06:27;97724.00;;;21.96;29.03
21361;BME280;10839;43.206;23.550;2023-03-19T09:08:53;97718.28;;;22.62;27.72
21361;BME280;10839;43.206;23.550;2023-03-19T09:11:19;97718.94;;;22.26;27.98
21361;BME280;10839;43.206;23.550;2023-03-19T09:13:45;97720.47;;;22.17;27.90
21361;BME280;10839;43.206;23.550;2023-03-19T09:16:12;97717.47;;;22.40;28.21
21361;BME280;10839;43.206;23.550;2023-03-19T09:18:38;97712.75;;;21.59;28.30
21361;BME280;10839;43.206;23.550;2023-03-19T09:21:03;97710.03;;;21.10;29.30
21361;BME280;10839;43.206;23.550;2023-03-19T09:23:30;97713.78;;;20.76;29.72
21361;BME280;10839;43.206;23.550;2023-03-19T09:25:56;97712.28;;;21.63;29.19
21361;BME280;10839;43.206;23.550;2023-03-19T09:28:22;97711.41;;;20.96;29.18
21361;BME280;10839;43.206;23.550;2023-03-19T09:30:49;97710.19;;;20.19;30.74
21361;BME280;10839;43.206;23.550;2023-03-19T09:33:17;97713.31;;;20.95;29.92
21361;BME280;10839;43.206;23.550;2023-03-19T09:35:49;97715.31;;;20.44;30.20
21361;BME280;10839;43.206;23.550;2023-03-19T09:38:18;97707.91;;;20.84;29.77
21361;BME280;10839;43.206;23.550;2023-03-19T09:40:58;97715.19;;;20.95;30.08
21361;BME280;10839;43.206;23.550;2023-03-19T09:43:51;97710.94;;;20.71;30.21
21361;BME280;10839;43.206;23.550;2023-03-19T09:51:52;97713.06;;;21.63;29.46
21361;BME280;10839;43.206;23.550;2023-03-19T09:56:53;97707.03;;;21.99;28.78
21361;BME280;10839;43.206;23.550;2023-03-19T09:59:25;97697.75;;;22.43;28.49
21361;BME280;10839;43.206;23.550;2023-03-19T10:02:00;97694.31;;;21.88;29.01
21361;BME280;10839;43.206;23.550;2023-03-19T10:12:58;97698.28;;;22.40;28.49
21361;BME280;10839;43.206;23.550;2023-03-19T10:15:30;97691.34;;;21.56;29.19
21361;BME280;10839;43.206;23.550;2023-03-19T10:21:06;97679.00;;;20.76;30.11
21361;BME280;10839;43.206;23.550;2023-03-19T10:26:05;97682.41;;;21.28;29.47
21361;BME280;10839;43.206;23.550;2023-03-19T10:28:35;97667.13;;;21.48;29.87
21361;BME280;10839;43.206;23.550;2023-03-19T10:34:10;97674.34;;;21.76;29.66
21361;BME280;10839;43.206;23.550;2023-03-19T10:36:39;97657.34;;;21.52;29.84
21361;BME280;10839;43.206;23.550;2023-03-19T10:39:05;97664.94;;;21.67;29.68
21361;BME280;10839;43.206;23.550;2023-03-19T10:41:46;97652.88;;;22.06;29.76
21361;BME280;10839;43.206;23.550;2023-03-19T10:46:50;97647.19;;;21.53;30.44
21361;BME280;10839;43.206;23.550;2023-03-19T10:49:16;97648.66;;;21.77;29.92
21361;BME280;10839;43.206;23.550;2023-03-19T10:51:44;97640.28;;;21.67;30.17
21361;BME280;10839;43.206;23.550;2023-03-19T10:54:22;97639.25;;;21.35;30.18
21361;BME280;10839;43.206;23.550;2023-03-19T10:56:49;97636.50;;;21.73;30.10
21361;BME280;10839;43.206;23.550;2023-03-19T10:59:24;97624.63;;;21.46;30.40
21361;BME280;10839;43.206;23.550;2023-03-19T11:01:56;97618.88;;;21.26;30.20
21361;BME280;10839;43.206;23.550;2023-03-19T11:04:23;97624.31;;;20.93;30.45
21361;BME280;10839;43.206;23.550;2023-03-19T11:06:52;97618.84;;;21.42;30.47
21361;BME280;10839;43.206;23.550;2023-03-19T11:09:34;97616.88;;;21.21;30.55
21361;BME280;10839;43.206;23.550;2023-03-19T11:12:23;97599.47;;;20.78;31.31
21361;BME280;10839;43.206;23.550;2023-03-19T11:14:54;97607.09;;;19.91;32.37
21361;BME280;10839;43.206;23.550;2023-03-19T11:17:48;97605.41;;;20.91;31.72
21361;BME280;10839;43.206;23.550;2023-03-19T11:20:36;97603.78;;;21.07;30.90
21361;BME280;10839;43.206;23.550;2023-03-19T11:23:10;97595.72;;;21.55;30.66
21361;BME280;10839;43.206;23.550;2023-03-19T11:25:41;97593.09;;;20.27;31.85
21361;BME280;10839;43.206;23.550;2023-03-19T11:28:11;97591.00;;;19.78;33.75
21361;BME280;10839;43.206;23.550;2023-03-19T11:30:39;97588.03;;;20.97;31.71
21361;BME280;10839;43.206;23.550;2023-03-19T11:35:51;97587.09;;;20.75;31.65
21361;BME280;10839;43.206;23.550;2023-03-19T11:38:29;97576.13;;;20.42;31.57
21361;BME280;10839;43.206;23.550;2023-03-19T11:44:05;97560.84;;;20.01;32.77
21361;BME280;10839;43.206;23.550;2023-03-19T11:47:12;97551.69;;;20.36;32.51
21361;BME280;10839;43.206;23.550;2023-03-19T11:52:39;97546.41;;;19.61;33.99
21361;BME280;10839;43.206;23.550;2023-03-19T11:55:27;97543.06;;;20.44;33.16
21361;BME280;10839;43.206;23.550;2023-03-19T12:00:50;97532.38;;;19.97;32.85
21361;BME280;10839;43.206;23.550;2023-03-19T12:12:25;97528.81;;;19.06;35.50
21361;BME280;10839;43.206;23.550;2023-03-19T12:14:59;97518.28;;;19.61;34.21
21361;BME280;10839;43.206;23.550;2023-03-19T12:26:32;97526.19;;;19.11;35.12
21361;BME280;10839;43.206;23.550;2023-03-19T12:29:04;97519.19;;;19.15;35.34
21361;BME280;10839;43.206;23.550;2023-03-19T12:39:51;97496.75;;;18.21;37.04
21361;BME280;10839;43.206;23.550;2023-03-19T12:42:20;97508.59;;;18.15;37.72
21361;BME280;10839;43.206;23.550;2023-03-19T12:44:51;97496.34;;;18.93;36.36
21361;BME280;10839;43.206;23.550;2023-03-19T12:47:27;97500.66;;;18.13;37.32
21361;BME280;10839;43.206;23.550;2023-03-19T12:50:05;97501.91;;;18.40;37.03
21361;BME280;10839;43.206;23.550;2023-03-19T12:52:39;97500.38;;;18.79;36.90
21361;BME280;10839;43.206;23.550;2023-03-19T12:55:48;97503.84;;;18.22;37.39
21361;BME280;10839;43.206;23.550;2023-03-19T13:00:56;97490.06;;;17.94;37.90
21361;BME280;10839;43.206;23.550;2023-03-19T13:03:32;97497.50;;;17.87;38.18
21361;BME280;10839;43.206;23.550;2023-03-19T13:06:07;97486.69;;;18.21;37.76
21361;BME280;10839;43.206;23.550;2023-03-19T13:11:16;97490.31;;;18.04;37.95
21361;BME280;10839;43.206;23.550;2023-03-19T13:13:54;97488.81;;;17.66;38.91
21361;BME280;10839;43.206;23.550;2023-03-19T13:16:32;97486.69;;;18.10;38.44
21361;BME280;10839;43.206;23.550;2023-03-19T13:21:58;97482.75;;;18.06;39.53
21361;BME280;10839;43.206;23.550;2023-03-19T13:24:29;97472.59;;;18.36;38.81
21361;BME280;10839;43.206;23.550;2023-03-19T13:26:58;97473.84;;;17.99;39.10
21361;BME280;10839;43.206;23.550;2023-03-19T13:29:27;97464.75;;;17.63;40.08
21361;BME280;10839;43.206;23.550;2023-03-19T13:32:00;97463.22;;;18.09;39.73
21361;BME280;10839;43.206;23.550;2023-03-19T13:34:30;97467.25;;;18.06;39.69
21361;BME280;10839;43.206;23.550;2023-03-19T13:37:10;97456.19;;;17.78;40.42
21361;BME280;10839;43.206;23.550;2023-03-19T13:39:39;97455.56;;;18.40;39.18
21361;BME280;10839;43.206;23.550;2023-03-19T13:44:50;97449.28;;;17.75;40.68
21361;BME280;10839;43.206;23.550;2023-03-19T13:54:53;97459.34;;;17.75;40.75
21361;BME280;10839;43.206;23.550;2023-03-19T13:57:32;97447.84;;;18.37;39.62
21361;BME280;10839;43.206;23.550;2023-03-19T14:03:05;97433.31;;;17.79;41.07
21361;BME280;10839;43.206;23.550;2023-03-19T14:05:33;97442.25;;;17.98;40.90
21361;BME280;10839;43.206;23.550;2023-03-19T14:08:00;97444.84;;;17.51;41.97
21361;BME280;10839;43.206;23.550;2023-03-19T14:10:46;97443.56;;;17.65;41.52
21361;BME280;10839;43.206;23.550;2023-03-19T14:16:25;97431.59;;;17.37;42.02
21361;BME280;10839;43.206;23.550;2023-03-19T14:19:00;97436.22;;;17.54;41.75
21361;BME280;10839;43.206;23.550;2023-03-19T14:21:41;97435.63;;;17.34;42.28
21361;BME280;10839;43.206;23.550;2023-03-19T14:27:02;97429.53;;;17.80;41.06
21361;BME280;10839;43.206;23.550;2023-03-19T14:29:29;97437.59;;;17.45;41.18
21361;BME280;10839;43.206;23.550;2023-03-19T14:32:05;97435.44;;;17.18;42.00
21361;BME280;10839;43.206;23.550;2023-03-19T14:34:35;97436.97;;;17.61;41.44
21361;BME280;10839;43.206;23.550;2023-03-19T14:37:20;97435.75;;;17.57;41.48
21361;BME280;10839;43.206;23.550;2023-03-19T14:40:31;97428.81;;;17.73;41.49
21361;BME280;10839;43.206;23.550;2023-03-19T14:43:22;97426.47;;;17.76;40.82